sensor_id;sensor_type;location;lat;lon;timestamp;P1;durP1;ratioP1;P2;durP2;ratioP2
44218;SDS011;29889;52.034;5.570;2022-11-20T00:00:08;12.57;;;9.63;;
44218;SDS011;29889;52.034;5.570;2022-11-20T00:00:39;12.75;;;9.55;;
44218;SDS011;29889;52.034;5.570;2022-11-20T00:01:12;13.65;;;9.20;;
44218;SDS011;29889;52.034;5.570;2022-11-20T00:01:43;13.93;;;10.50;;
44218;SDS011;29889;52.034;5.570;2022-11-20T00:02:14;14.82;;;10.85;;
44218;SDS011;29889;52.034;5.570;2022-11-20T00:02:45;13.38;;;10.40;;
44218;SDS011;29889;52.034;5.570;2022-11-20T00:03:16;12.73;;;9.48;;
44218;SDS011;29889;52.034;5.570;2022-11-20T00:03:47;13.57;;;9.77;;
44218;SDS011;29889;52.034;5.570;2022-11-20T00:04:18;14.32;;;9.50;;
44218;SDS011;29889;52.034;5.570;2022-11-20T00:04:49;13.07;;;9.10;;
44218;SDS011;29889;52.034;5.570;2022-11-20T00:05:20;17.27;;;10.23;;
44218;SDS011;29889;52.034;5.570;2022-11-20T00:05:51;14.70;;;10.25;;
44218;SDS011;29889;52.034;5.570;2022-11-20T00:06:22;12.50;;;8.90;;
44218;SDS011;29889;52.034;5.570;2022-11-20T00:06:53;14.70;;;9.63;;
44218;SDS011;29889;52.034;5.570;2022-11-20T00:07:24;13.23;;;9.43;;
44218;SDS011;29889;52.034;5.570;2022-11-20T00:07:55;11.77;;;8.48;;
44218;SDS011;29889;52.034;5.570;2022-11-20T00:08:26;12.85;;;8.30;;
44218;SDS011;29889;52.034;5.570;2022-11-20T00:08:58;12.50;;;8.88;;
44218;SDS011;29889;52.034;5.570;2022-11-20T00:09:29;13.20;;;9.18;;
44218;SDS011;29889;52.034;5.570;2022-11-20T00:10:00;14.95;;;9.82;;
44218;SDS011;29889;52.034;5.570;2022-11-20T00:10:31;10.95;;;8.60;;
44218;SDS011;29889;52.034;5.570;2022-11-20T00:11:06;12.45;;;10.05;;
44218;SDS011;29889;52.034;5.570;2022-11-20T00:11:37;12.95;;;9.25;;
44218;SDS011;29889;52.034;5.570;2022-11-20T00:12:08;13.95;;;10.10;;
44218;SDS011;29889;52.034;5.570;2022-11-20T00:12:39;14.98;;;11.07;;
44218;SDS011;29889;52.034;5.570;2022-11-20T00:13:10;14.13;;;10.52;;
44218;SDS011;29889;52.034;5.570;2022-11-20T00:13:41;12.85;;;9.18;;
44218;SDS011;29889;52.034;5.570;2022-11-20T00:14:12;13.25;;;9.55;;
44218;SDS011;29889;52.034;5.570;2022-11-20T00:14:43;12.02;;;9.00;;
44218;SDS011;29889;52.034;5.570;2022-11-20T00:15:14;13.52;;;10.13;;
44218;SDS011;29889;52.034;5.570;2022-11-20T00:15:44;13.35;;;10.32;;
44218;SDS011;29889;52.034;5.570;2022-11-20T00:16:16;12.48;;;9.20;;
44218;SDS011;29889;52.034;5.570;2022-11-20T00:16:48;14.43;;;9.40;;
44218;SDS011;29889;52.034;5.570;2022-11-20T00:17:19;12.02;;;9.48;;
44218;SDS011;29889;52.034;5.570;2022-11-20T00:17:50;13.43;;;9.85;;
44218;SDS011;29889;52.034;5.570;2022-11-20T00:18:21;14.70;;;10.73;;
44218;SDS011;29889;52.034;5.570;2022-11-20T00:18:52;13.50;;;11.15;;
44218;SDS011;29889;52.034;5.570;2022-11-20T00:19:23;13.50;;;10.45;;
44218;SDS011;29889;52.034;5.570;2022-11-20T00:19:54;14.68;;;10.63;;
44218;SDS011;29889;52.034;5.570;2022-11-20T00:20:25;15.32;;;11.93;;
44218;SDS011;29889;52.034;5.570;2022-11-20T00:21:06;15.98;;;12.40;;
44218;SDS011;29889;52.034;5.570;2022-11-20T00:21:37;15.93;;;9.88;;
44218;SDS011;29889;52.034;5.570;2022-11-20T00:22:08;13.73;;;9.18;;
44218;SDS011;29889;52.034;5.570;2022-11-20T00:22:39;13.27;;;9.85;;
44218;SDS011;29889;52.034;5.570;2022-11-20T00:23:10;15.40;;;10.93;;
44218;SDS011;29889;52.034;5.570;2022-11-20T00:23:41;13.07;;;9.43;;
44218;SDS011;29889;52.034;5.570;2022-11-20T00:24:12;12.68;;;9.57;;
44218;SDS011;29889;52.034;5.570;2022-11-20T00:24:43;14.35;;;10.07;;
44218;SDS011;29889;52.034;5.570;2022-11-20T00:25:14;14.25;;;9.25;;
44218;SDS011;29889;52.034;5.570;2022-11-20T00:25:45;14.15;;;9.85;;
44218;SDS011;29889;52.034;5.570;2022-11-20T00:26:17;12.98;;;9.88;;
44218;SDS011;29889;52.034;5.570;2022-11-20T00:26:49;15.18;;;10.13;;
44218;SDS011;29889;52.034;5.570;2022-11-20T00:27:20;13.73;;;9.15;;
44218;SDS011;29889;52.034;5.570;2022-11-20T00:27:50;11.10;;;8.07;;
44218;SDS011;29889;52.034;5.570;2022-11-20T00:28:21;14.15;;;8.80;;
44218;SDS011;29889;52.034;5.570;2022-11-20T00:28:53;13.23;;;9.25;;
44218;SDS011;29889;52.034;5.570;2022-11-20T00:29:24;13.90;;;10.48;;
44218;SDS011;29889;52.034;5.570;2022-11-20T00:29:55;13.02;;;9.63;;
44218;SDS011;29889;52.034;5.570;2022-11-20T00:30:26;12.30;;;9.50;;
44218;SDS011;29889;52.034;5.570;2022-11-20T00:31:07;15.38;;;10.93;;
44218;SDS011;29889;52.034;5.570;2022-11-20T00:31:38;16.55;;;10.60;;
44218;SDS011;29889;52.034;5.570;2022-11-20T00:32:09;14.25;;;10.38;;
44218;SDS011;29889;52.034;5.570;2022-11-20T00:32:40;13.32;;;10.05;;
44218;SDS011;29889;52.034;5.570;2022-11-20T00:33:11;13.88;;;9.80;;
44218;SDS011;29889;52.034;5.570;2022-11-20T00:33:43;13.23;;;9.85;;
44218;SDS011;29889;52.034;5.570;2022-11-20T00:34:14;13.00;;;9.95;;
44218;SDS011;29889;52.034;5.570;2022-11-20T00:34:45;14.93;;;10.70;;
44218;SDS011;29889;52.034;5.570;2022-11-20T00:35:16;15.57;;;12.23;;
44218;SDS011;29889;52.034;5.570;2022-11-20T00:35:47;17.05;;;11.23;;
44218;SDS011;29889;52.034;5.570;2022-11-20T00:36:18;15.95;;;12.32;;
44218;SDS011;29889;52.034;5.570;2022-11-20T00:36:50;15.63;;;10.85;;
44218;SDS011;29889;52.034;5.570;2022-11-20T00:37:20;12.98;;;9.55;;
44218;SDS011;29889;52.034;5.570;2022-11-20T00:37:51;14.05;;;10.18;;
44218;SDS011;29889;52.034;5.570;2022-11-20T00:38:22;13.63;;;9.05;;
44218;SDS011;29889;52.034;5.570;2022-11-20T00:38:54;14.25;;;10.60;;
44218;SDS011;29889;52.034;5.570;2022-11-20T00:39:25;14.10;;;9.80;;
44218;SDS011;29889;52.034;5.570;2022-11-20T00:39:56;12.07;;;9.98;;
44218;SDS011;29889;52.034;5.570;2022-11-20T00:40:27;12.25;;;8.85;;
44218;SDS011;29889;52.034;5.570;2022-11-20T00:41:02;16.35;;;10.48;;
44218;SDS011;29889;52.034;5.570;2022-11-20T00:41:33;14.48;;;10.38;;
44218;SDS011;29889;52.034;5.570;2022-11-20T00:42:04;15.20;;;9.63;;
44218;SDS011;29889;52.034;5.570;2022-11-20T00:42:35;11.75;;;9.70;;
44218;SDS011;29889;52.034;5.570;2022-11-20T00:43:06;13.27;;;10.18;;
44218;SDS011;29889;52.034;5.570;2022-11-20T00:43:37;14.10;;;9.77;;
44218;SDS011;29889;52.034;5.570;2022-11-20T00:44:08;13.55;;;10.52;;
44218;SDS011;29889;52.034;5.570;2022-11-20T00:44:39;15.43;;;11.07;;
44218;SDS011;29889;52.034;5.570;2022-11-20T00:45:10;14.93;;;11.52;;
44218;SDS011;29889;52.034;5.570;2022-11-20T00:45:41;14.95;;;11.80;;
44218;SDS011;29889;52.034;5.570;2022-11-20T00:46:13;14.90;;;10.45;;
44218;SDS011;29889;52.034;5.570;2022-11-20T00:46:44;15.02;;;10.02;;
44218;SDS011;29889;52.034;5.570;2022-11-20T00:47:15;13.63;;;9.65;;
44218;SDS011;29889;52.034;5.570;2022-11-20T00:47:46;13.55;;;10.48;;
44218;SDS011;29889;52.034;5.570;2022-11-20T00:48:17;13.63;;;9.82;;
44218;SDS011;29889;52.034;5.570;2022-11-20T00:48:49;13.52;;;9.20;;
44218;SDS011;29889;52.034;5.570;2022-11-20T00:49:20;16.17;;;11.73;;
44218;SDS011;29889;52.034;5.570;2022-11-20T00:49:51;13.55;;;10.32;;
44218;SDS011;29889;52.034;5.570;2022-11-20T00:50:22;14.55;;;9.65;;
44218;SDS011;29889;52.034;5.570;2022-11-20T00:50:53;13.57;;;9.50;;
44218;SDS011;29889;52.034;5.570;2022-11-20T00:51:25;12.18;;;9.75;;
44218;SDS011;29889;52.034;5.570;2022-11-20T00:51:56;13.15;;;10.25;;
44218;SDS011;29889;52.034;5.570;2022-11-20T00:52:27;12.52;;;9.98;;
44218;SDS011;29889;52.034;5.570;2022-11-20T00:52:58;11.88;;;8.82;;
44218;SDS011;29889;52.034;5.570;2022-11-20T00:53:29;15.05;;;10.40;;
44218;SDS011;29889;52.034;5.570;2022-11-20T00:54:00;13.13;;;10.05;;
44218;SDS011;29889;52.034;5.570;2022-11-20T00:54:32;13.52;;;10.23;;
44218;SDS011;29889;52.034;5.570;2022-11-20T00:55:03;14.50;;;10.05;;
44218;SDS011;29889;52.034;5.570;2022-11-20T00:55:34;12.63;;;9.85;;
44218;SDS011;29889;52.034;5.570;2022-11-20T00:56:06;13.65;;;8.65;;
44218;SDS011;29889;52.034;5.570;2022-11-20T00:56:37;14.35;;;10.68;;
44218;SDS011;29889;52.034;5.570;2022-11-20T00:57:08;14.18;;;10.05;;
44218;SDS011;29889;52.034;5.570;2022-11-20T00:57:39;15.70;;;10.63;;
44218;SDS011;29889;52.034;5.570;2022-11-20T00:58:10;12.75;;;9.95;;
44218;SDS011;29889;52.034;5.570;2022-11-20T00:58:41;14.02;;;9.85;;
44218;SDS011;29889;52.034;5.570;2022-11-20T00:59:12;13.10;;;9.55;;
44218;SDS011;29889;52.034;5.570;2022-11-20T00:59:43;13.60;;;10.98;;
44218;SDS011;29889;52.034;5.570;2022-11-20T01:00:15;15.30;;;10.52;;
44218;SDS011;29889;52.034;5.570;2022-11-20T01:00:46;16.38;;;11.90;;
44218;SDS011;29889;52.034;5.570;2022-11-20T01:01:18;16.83;;;11.70;;
44218;SDS011;29889;52.034;5.570;2022-11-20T01:01:49;13.73;;;10.57;;
44218;SDS011;29889;52.034;5.570;2022-11-20T01:02:20;13.45;;;10.00;;
44218;SDS011;29889;52.034;5.570;2022-11-20T01:02:51;17.10;;;11.95;;
44218;SDS011;29889;52.034;5.570;2022-11-20T01:03:22;14.63;;;10.48;;
44218;SDS011;29889;52.034;5.570;2022-11-20T01:03:54;13.82;;;10.20;;
44218;SDS011;29889;52.034;5.570;2022-11-20T01:04:25;13.23;;;10.85;;
44218;SDS011;29889;52.034;5.570;2022-11-20T01:04:56;13.57;;;9.75;;
44218;SDS011;29889;52.034;5.570;2022-11-20T01:05:27;14.85;;;9.98;;
44218;SDS011;29889;52.034;5.570;2022-11-20T01:06:02;14.52;;;10.18;;
44218;SDS011;29889;52.034;5.570;2022-11-20T01:06:35;18.70;;;12.82;;
44218;SDS011;29889;52.034;5.570;2022-11-20T01:07:06;19.13;;;12.18;;
44218;SDS011;29889;52.034;5.570;2022-11-20T01:07:37;12.52;;;9.52;;
44218;SDS011;29889;52.034;5.570;2022-11-20T01:08:08;14.88;;;10.38;;
44218;SDS011;29889;52.034;5.570;2022-11-20T01:08:39;14.25;;;8.90;;
44218;SDS011;29889;52.034;5.570;2022-11-20T01:09:11;12.88;;;10.40;;
44218;SDS011;29889;52.034;5.570;2022-11-20T01:09:42;14.90;;;11.90;;
44218;SDS011;29889;52.034;5.570;2022-11-20T01:10:13;14.57;;;11.55;;
44218;SDS011;29889;52.034;5.570;2022-11-20T01:10:44;18.00;;;12.60;;
44218;SDS011;29889;52.034;5.570;2022-11-20T01:11:19;16.75;;;11.43;;
44218;SDS011;29889;52.034;5.570;2022-11-20T01:11:50;14.10;;;10.50;;
44218;SDS011;29889;52.034;5.570;2022-11-20T01:12:21;13.05;;;9.93;;
44218;SDS011;29889;52.034;5.570;2022-11-20T01:12:52;13.93;;;10.15;;
44218;SDS011;29889;52.034;5.570;2022-11-20T01:13:44;13.57;;;10.68;;
44218;SDS011;29889;52.034;5.570;2022-11-20T01:14:16;14.82;;;10.93;;
44218;SDS011;29889;52.034;5.570;2022-11-20T01:14:48;18.77;;;11.60;;
44218;SDS011;29889;52.034;5.570;2022-11-20T01:15:19;16.10;;;11.15;;
44218;SDS011;29889;52.034;5.570;2022-11-20T01:15:50;17.95;;;13.02;;
44218;SDS011;29889;52.034;5.570;2022-11-20T01:16:22;14.75;;;11.02;;
44218;SDS011;29889;52.034;5.570;2022-11-20T01:16:53;15.93;;;11.88;;
44218;SDS011;29889;52.034;5.570;2022-11-20T01:17:24;18.17;;;12.82;;
44218;SDS011;29889;52.034;5.570;2022-11-20T01:17:55;15.63;;;12.23;;
44218;SDS011;29889;52.034;5.570;2022-11-20T01:18:26;18.50;;;11.80;;
44218;SDS011;29889;52.034;5.570;2022-11-20T01:18:57;16.73;;;12.45;;
44218;SDS011;29889;52.034;5.570;2022-11-20T01:19:29;17.08;;;12.68;;
44218;SDS011;29889;52.034;5.570;2022-11-20T01:20:00;19.73;;;13.20;;
44218;SDS011;29889;52.034;5.570;2022-11-20T01:20:37;19.00;;;12.80;;
44218;SDS011;29889;52.034;5.570;2022-11-20T01:21:12;19.20;;;12.52;;
44218;SDS011;29889;52.034;5.570;2022-11-20T01:21:44;17.83;;;13.20;;
44218;SDS011;29889;52.034;5.570;2022-11-20T01:22:15;16.27;;;12.07;;
44218;SDS011;29889;52.034;5.570;2022-11-20T01:22:46;16.63;;;12.00;;
44218;SDS011;29889;52.034;5.570;2022-11-20T01:23:17;19.73;;;14.57;;
44218;SDS011;29889;52.034;5.570;2022-11-20T01:23:48;17.35;;;12.23;;
44218;SDS011;29889;52.034;5.570;2022-11-20T01:24:20;16.25;;;11.25;;
44218;SDS011;29889;52.034;5.570;2022-11-20T01:24:51;21.85;;;14.93;;
44218;SDS011;29889;52.034;5.570;2022-11-20T01:25:22;21.80;;;15.48;;
44218;SDS011;29889;52.034;5.570;2022-11-20T01:25:53;24.67;;;15.10;;
44218;SDS011;29889;52.034;5.570;2022-11-20T01:26:25;19.05;;;14.35;;
44218;SDS011;29889;52.034;5.570;2022-11-20T01:26:56;17.60;;;12.60;;
44218;SDS011;29889;52.034;5.570;2022-11-20T01:27:27;16.08;;;11.02;;
44218;SDS011;29889;52.034;5.570;2022-11-20T01:27:58;20.00;;;12.55;;
44218;SDS011;29889;52.034;5.570;2022-11-20T01:28:29;16.38;;;11.50;;
44218;SDS011;29889;52.034;5.570;2022-11-20T01:29:00;14.68;;;11.65;;
44218;SDS011;29889;52.034;5.570;2022-11-20T01:29:32;16.95;;;11.98;;
44218;SDS011;29889;52.034;5.570;2022-11-20T01:30:03;15.93;;;11.25;;
44218;SDS011;29889;52.034;5.570;2022-11-20T01:30:34;16.92;;;12.50;;
44218;SDS011;29889;52.034;5.570;2022-11-20T01:31:15;17.70;;;12.25;;
44218;SDS011;29889;52.034;5.570;2022-11-20T01:31:46;16.63;;;12.65;;
44218;SDS011;29889;52.034;5.570;2022-11-20T01:32:17;18.23;;;12.57;;
44218;SDS011;29889;52.034;5.570;2022-11-20T01:32:48;20.52;;;13.65;;
44218;SDS011;29889;52.034;5.570;2022-11-20T01:33:19;19.08;;;12.18;;
44218;SDS011;29889;52.034;5.570;2022-11-20T01:33:51;20.15;;;12.18;;
44218;SDS011;29889;52.034;5.570;2022-11-20T01:34:22;15.70;;;12.82;;
44218;SDS011;29889;52.034;5.570;2022-11-20T01:34:54;16.75;;;11.13;;
44218;SDS011;29889;52.034;5.570;2022-11-20T01:35:25;15.95;;;12.43;;
44218;SDS011;29889;52.034;5.570;2022-11-20T01:36:02;16.38;;;11.25;;
44218;SDS011;29889;52.034;5.570;2022-11-20T01:36:35;18.10;;;12.60;;
44218;SDS011;29889;52.034;5.570;2022-11-20T01:37:06;19.05;;;13.30;;
44218;SDS011;29889;52.034;5.570;2022-11-20T01:37:37;21.42;;;14.48;;
44218;SDS011;29889;52.034;5.570;2022-11-20T01:38:08;23.02;;;14.63;;
44218;SDS011;29889;52.034;5.570;2022-11-20T01:38:39;19.98;;;14.20;;
44218;SDS011;29889;52.034;5.570;2022-11-20T01:39:15;22.55;;;16.40;;
44218;SDS011;29889;52.034;5.570;2022-11-20T01:39:46;28.13;;;19.35;;
44218;SDS011;29889;52.034;5.570;2022-11-20T01:40:17;30.35;;;20.42;;
44218;SDS011;29889;52.034;5.570;2022-11-20T01:40:54;26.42;;;18.38;;
44218;SDS011;29889;52.034;5.570;2022-11-20T01:41:26;27.38;;;18.38;;
44218;SDS011;29889;52.034;5.570;2022-11-20T01:42:16;22.50;;;16.27;;
44218;SDS011;29889;52.034;5.570;2022-11-20T01:43:18;23.70;;;15.70;;
44218;SDS011;29889;52.034;5.570;2022-11-20T01:43:52;21.63;;;14.52;;
44218;SDS011;29889;52.034;5.570;2022-11-20T01:46:55;18.02;;;11.95;;
44218;SDS011;29889;52.034;5.570;2022-11-20T01:47:40;16.95;;;12.38;;
44218;SDS011;29889;52.034;5.570;2022-11-20T01:48:13;17.88;;;11.93;;
44218;SDS011;29889;52.034;5.570;2022-11-20T01:48:50;16.00;;;11.38;;
44218;SDS011;29889;52.034;5.570;2022-11-20T01:50:16;16.77;;;11.85;;
44218;SDS011;29889;52.034;5.570;2022-11-20T01:50:45;18.73;;;12.65;;
44218;SDS011;29889;52.034;5.570;2022-11-20T01:51:18;17.25;;;12.00;;
44218;SDS011;29889;52.034;5.570;2022-11-20T01:51:55;17.92;;;12.70;;
44218;SDS011;29889;52.034;5.570;2022-11-20T01:52:29;17.33;;;12.93;;
44218;SDS011;29889;52.034;5.570;2022-11-20T01:53:02;17.45;;;11.98;;
44218;SDS011;29889;52.034;5.570;2022-11-20T01:53:34;18.42;;;13.18;;
44218;SDS011;29889;52.034;5.570;2022-11-20T01:54:08;17.10;;;11.98;;
44218;SDS011;29889;52.034;5.570;2022-11-20T01:54:42;19.10;;;13.43;;
44218;SDS011;29889;52.034;5.570;2022-11-20T01:55:16;15.60;;;11.32;;
44218;SDS011;29889;52.034;5.570;2022-11-20T01:55:49;20.55;;;12.73;;
44218;SDS011;29889;52.034;5.570;2022-11-20T01:56:20;16.15;;;11.38;;
44218;SDS011;29889;52.034;5.570;2022-11-20T01:56:53;15.23;;;11.27;;
44218;SDS011;29889;52.034;5.570;2022-11-20T01:57:25;16.48;;;11.80;;
44218;SDS011;29889;52.034;5.570;2022-11-20T01:57:57;14.48;;;10.52;;
44218;SDS011;29889;52.034;5.570;2022-11-20T01:58:30;16.55;;;12.07;;
44218;SDS011;29889;52.034;5.570;2022-11-20T01:59:03;18.08;;;12.90;;
44218;SDS011;29889;52.034;5.570;2022-11-20T01:59:35;18.77;;;14.85;;
44218;SDS011;29889;52.034;5.570;2022-11-20T02:00:07;17.35;;;13.68;;
44218;SDS011;29889;52.034;5.570;2022-11-20T02:00:39;16.58;;;13.75;;
44218;SDS011;29889;52.034;5.570;2022-11-20T02:01:11;17.83;;;14.70;;
44218;SDS011;29889;52.034;5.570;2022-11-20T02:01:43;18.73;;;13.95;;
44218;SDS011;29889;52.034;5.570;2022-11-20T02:02:14;17.42;;;12.75;;
44218;SDS011;29889;52.034;5.570;2022-11-20T02:02:47;16.83;;;11.75;;
44218;SDS011;29889;52.034;5.570;2022-11-20T02:03:19;15.93;;;11.23;;
44218;SDS011;29889;52.034;5.570;2022-11-20T02:03:50;16.10;;;11.80;;
44218;SDS011;29889;52.034;5.570;2022-11-20T02:04:21;13.82;;;10.25;;
44218;SDS011;29889;52.034;5.570;2022-11-20T02:04:54;14.23;;;10.77;;
44218;SDS011;29889;52.034;5.570;2022-11-20T02:06:27;14.90;;;10.35;;
44218;SDS011;29889;52.034;5.570;2022-11-20T02:07:00;16.85;;;11.05;;
44218;SDS011;29889;52.034;5.570;2022-11-20T02:07:31;14.93;;;11.13;;
44218;SDS011;29889;52.034;5.570;2022-11-20T02:08:03;18.05;;;12.00;;
44218;SDS011;29889;52.034;5.570;2022-11-20T02:08:35;16.27;;;10.73;;
44218;SDS011;29889;52.034;5.570;2022-11-20T02:09:06;13.35;;;10.35;;
44218;SDS011;29889;52.034;5.570;2022-11-20T02:09:37;17.80;;;11.77;;
44218;SDS011;29889;52.034;5.570;2022-11-20T02:10:08;18.30;;;12.85;;
44218;SDS011;29889;52.034;5.570;2022-11-20T02:10:39;16.63;;;12.80;;
44218;SDS011;29889;52.034;5.570;2022-11-20T02:11:10;16.48;;;11.18;;
44218;SDS011;29889;52.034;5.570;2022-11-20T02:11:42;12.98;;;9.75;;
44218;SDS011;29889;52.034;5.570;2022-11-20T02:12:13;14.20;;;9.20;;
44218;SDS011;29889;52.034;5.570;2022-11-20T02:13:05;13.60;;;11.07;;
44218;SDS011;29889;52.034;5.570;2022-11-20T02:13:54;14.38;;;11.27;;
44218;SDS011;29889;52.034;5.570;2022-11-20T02:14:25;15.70;;;11.48;;
44218;SDS011;29889;52.034;5.570;2022-11-20T02:14:57;14.73;;;10.32;;
44218;SDS011;29889;52.034;5.570;2022-11-20T02:15:28;15.93;;;11.07;;
44218;SDS011;29889;52.034;5.570;2022-11-20T02:15:58;14.98;;;10.85;;
44218;SDS011;29889;52.034;5.570;2022-11-20T02:16:31;16.10;;;11.43;;
44218;SDS011;29889;52.034;5.570;2022-11-20T02:17:04;18.35;;;11.88;;
44218;SDS011;29889;52.034;5.570;2022-11-20T02:17:34;14.82;;;11.60;;
44218;SDS011;29889;52.034;5.570;2022-11-20T02:18:06;13.25;;;9.57;;
44218;SDS011;29889;52.034;5.570;2022-11-20T02:18:38;14.02;;;10.63;;
44218;SDS011;29889;52.034;5.570;2022-11-20T02:19:11;15.15;;;9.93;;
44218;SDS011;29889;52.034;5.570;2022-11-20T02:19:43;16.92;;;11.57;;
44218;SDS011;29889;52.034;5.570;2022-11-20T02:20:14;18.23;;;12.60;;
44218;SDS011;29889;52.034;5.570;2022-11-20T02:20:46;15.32;;;11.25;;
44218;SDS011;29889;52.034;5.570;2022-11-20T02:22:28;18.25;;;12.07;;
44218;SDS011;29889;52.034;5.570;2022-11-20T02:23:08;15.00;;;10.95;;
44218;SDS011;29889;52.034;5.570;2022-11-20T02:23:51;16.90;;;11.93;;
44218;SDS011;29889;52.034;5.570;2022-11-20T02:24:22;16.20;;;11.82;;
44218;SDS011;29889;52.034;5.570;2022-11-20T02:24:53;16.00;;;11.18;;
44218;SDS011;29889;52.034;5.570;2022-11-20T02:25:24;16.38;;;10.70;;
44218;SDS011;29889;52.034;5.570;2022-11-20T02:25:56;13.95;;;11.05;;
44218;SDS011;29889;52.034;5.570;2022-11-20T02:26:28;14.82;;;11.77;;
44218;SDS011;29889;52.034;5.570;2022-11-20T02:27:18;15.55;;;10.35;;
44218;SDS011;29889;52.034;5.570;2022-11-20T02:27:49;15.88;;;10.32;;
44218;SDS011;29889;52.034;5.570;2022-11-20T02:28:22;17.27;;;12.15;;
44218;SDS011;29889;52.034;5.570;2022-11-20T02:28:53;15.57;;;10.95;;
44218;SDS011;29889;52.034;5.570;2022-11-20T02:29:34;15.43;;;10.60;;
44218;SDS011;29889;52.034;5.570;2022-11-20T02:30:06;15.10;;;11.38;;
44218;SDS011;29889;52.034;5.570;2022-11-20T02:30:39;14.90;;;10.55;;
44218;SDS011;29889;52.034;5.570;2022-11-20T02:31:10;16.35;;;10.50;;
44218;SDS011;29889;52.034;5.570;2022-11-20T02:31:41;12.45;;;9.02;;
44218;SDS011;29889;52.034;5.570;2022-11-20T02:32:19;12.98;;;9.93;;
44218;SDS011;29889;52.034;5.570;2022-11-20T02:32:51;15.15;;;10.73;;
44218;SDS011;29889;52.034;5.570;2022-11-20T02:33:22;15.52;;;9.77;;
44218;SDS011;29889;52.034;5.570;2022-11-20T02:33:56;15.95;;;10.77;;
44218;SDS011;29889;52.034;5.570;2022-11-20T02:34:28;15.20;;;10.77;;
44218;SDS011;29889;52.034;5.570;2022-11-20T02:35:06;14.23;;;11.45;;
44218;SDS011;29889;52.034;5.570;2022-11-20T02:35:41;15.13;;;11.52;;
44218;SDS011;29889;52.034;5.570;2022-11-20T02:36:14;15.48;;;10.55;;
44218;SDS011;29889;52.034;5.570;2022-11-20T02:36:45;15.00;;;10.45;;
44218;SDS011;29889;52.034;5.570;2022-11-20T02:37:17;17.38;;;11.82;;
44218;SDS011;29889;52.034;5.570;2022-11-20T02:37:49;17.73;;;12.52;;
44218;SDS011;29889;52.034;5.570;2022-11-20T02:38:21;18.67;;;12.98;;
44218;SDS011;29889;52.034;5.570;2022-11-20T02:38:52;15.38;;;10.38;;
44218;SDS011;29889;52.034;5.570;2022-11-20T02:39:24;13.63;;;9.55;;
44218;SDS011;29889;52.034;5.570;2022-11-20T02:39:55;12.43;;;9.43;;
44218;SDS011;29889;52.034;5.570;2022-11-20T02:40:26;11.68;;;9.57;;
44218;SDS011;29889;52.034;5.570;2022-11-20T02:40:58;15.50;;;10.52;;
44218;SDS011;29889;52.034;5.570;2022-11-20T02:41:32;15.93;;;10.80;;
44218;SDS011;29889;52.034;5.570;2022-11-20T02:42:03;12.32;;;9.32;;
44218;SDS011;29889;52.034;5.570;2022-11-20T02:42:35;15.23;;;10.88;;
44218;SDS011;29889;52.034;5.570;2022-11-20T02:43:06;15.27;;;9.90;;
44218;SDS011;29889;52.034;5.570;2022-11-20T02:43:37;13.80;;;11.13;;
44218;SDS011;29889;52.034;5.570;2022-11-20T02:44:08;13.80;;;10.13;;
44218;SDS011;29889;52.034;5.570;2022-11-20T02:44:39;13.43;;;10.85;;
44218;SDS011;29889;52.034;5.570;2022-11-20T02:45:10;14.65;;;9.75;;
44218;SDS011;29889;52.034;5.570;2022-11-20T02:45:41;16.15;;;11.15;;
44218;SDS011;29889;52.034;5.570;2022-11-20T02:46:12;17.50;;;11.23;;
44218;SDS011;29889;52.034;5.570;2022-11-20T02:46:43;15.23;;;12.02;;
44218;SDS011;29889;52.034;5.570;2022-11-20T02:47:14;13.90;;;11.10;;
44218;SDS011;29889;52.034;5.570;2022-11-20T02:47:45;14.90;;;10.57;;
44218;SDS011;29889;52.034;5.570;2022-11-20T02:48:16;14.43;;;11.43;;
44218;SDS011;29889;52.034;5.570;2022-11-20T02:48:47;15.35;;;11.07;;
44218;SDS011;29889;52.034;5.570;2022-11-20T02:49:18;13.45;;;10.52;;
44218;SDS011;29889;52.034;5.570;2022-11-20T02:49:49;17.65;;;11.35;;
44218;SDS011;29889;52.034;5.570;2022-11-20T02:50:20;16.63;;;10.52;;
44218;SDS011;29889;52.034;5.570;2022-11-20T02:50:51;14.30;;;10.23;;
44218;SDS011;29889;52.034;5.570;2022-11-20T02:51:22;14.45;;;10.27;;
44218;SDS011;29889;52.034;5.570;2022-11-20T02:51:53;14.73;;;11.25;;
44218;SDS011;29889;52.034;5.570;2022-11-20T02:52:24;15.50;;;10.70;;
44218;SDS011;29889;52.034;5.570;2022-11-20T02:52:55;15.02;;;10.93;;
44218;SDS011;29889;52.034;5.570;2022-11-20T02:53:27;18.73;;;11.20;;
44218;SDS011;29889;52.034;5.570;2022-11-20T02:53:58;15.10;;;9.57;;
44218;SDS011;29889;52.034;5.570;2022-11-20T02:54:29;15.00;;;10.98;;
44218;SDS011;29889;52.034;5.570;2022-11-20T02:55:00;12.88;;;9.85;;
44218;SDS011;29889;52.034;5.570;2022-11-20T02:55:31;15.57;;;10.93;;
44218;SDS011;29889;52.034;5.570;2022-11-20T02:56:02;14.10;;;10.32;;
44218;SDS011;29889;52.034;5.570;2022-11-20T02:56:32;13.48;;;10.13;;
44218;SDS011;29889;52.034;5.570;2022-11-20T02:57:03;13.57;;;9.85;;
44218;SDS011;29889;52.034;5.570;2022-11-20T02:57:34;12.10;;;9.05;;
44218;SDS011;29889;52.034;5.570;2022-11-20T02:58:05;13.23;;;9.68;;
44218;SDS011;29889;52.034;5.570;2022-11-20T02:58:36;14.30;;;10.45;;
44218;SDS011;29889;52.034;5.570;2022-11-20T02:59:07;14.52;;;10.52;;
44218;SDS011;29889;52.034;5.570;2022-11-20T02:59:39;17.00;;;10.13;;
44218;SDS011;29889;52.034;5.570;2022-11-20T03:00:10;11.43;;;9.20;;
44218;SDS011;29889;52.034;5.570;2022-11-20T03:00:41;13.07;;;9.27;;
44218;SDS011;29889;52.034;5.570;2022-11-20T03:01:12;14.38;;;10.52;;
44218;SDS011;29889;52.034;5.570;2022-11-20T03:01:43;13.77;;;10.88;;
44218;SDS011;29889;52.034;5.570;2022-11-20T03:02:14;13.88;;;10.40;;
44218;SDS011;29889;52.034;5.570;2022-11-20T03:02:45;14.25;;;10.55;;
44218;SDS011;29889;52.034;5.570;2022-11-20T03:03:16;14.55;;;10.52;;
44218;SDS011;29889;52.034;5.570;2022-11-20T03:03:46;14.85;;;10.52;;
44218;SDS011;29889;52.034;5.570;2022-11-20T03:04:18;14.40;;;10.00;;
44218;SDS011;29889;52.034;5.570;2022-11-20T03:04:49;15.73;;;10.23;;
44218;SDS011;29889;52.034;5.570;2022-11-20T03:05:20;14.27;;;11.10;;
44218;SDS011;29889;52.034;5.570;2022-11-20T03:05:51;13.52;;;9.80;;
44218;SDS011;29889;52.034;5.570;2022-11-20T03:06:22;14.52;;;10.13;;
44218;SDS011;29889;52.034;5.570;2022-11-20T03:06:53;14.60;;;10.35;;
44218;SDS011;29889;52.034;5.570;2022-11-20T03:07:24;13.68;;;10.50;;
44218;SDS011;29889;52.034;5.570;2022-11-20T03:07:55;12.25;;;9.60;;
44218;SDS011;29889;52.034;5.570;2022-11-20T03:08:26;13.82;;;9.48;;
44218;SDS011;29889;52.034;5.570;2022-11-20T03:08:58;13.23;;;10.30;;
44218;SDS011;29889;52.034;5.570;2022-11-20T03:09:29;12.23;;;9.60;;
44218;SDS011;29889;52.034;5.570;2022-11-20T03:10:00;15.10;;;10.63;;
44218;SDS011;29889;52.034;5.570;2022-11-20T03:10:31;12.30;;;9.77;;
44218;SDS011;29889;52.034;5.570;2022-11-20T03:11:03;15.50;;;11.55;;
44218;SDS011;29889;52.034;5.570;2022-11-20T03:11:34;14.63;;;10.82;;
44218;SDS011;29889;52.034;5.570;2022-11-20T03:12:06;12.32;;;8.88;;
44218;SDS011;29889;52.034;5.570;2022-11-20T03:12:37;13.40;;;9.70;;
44218;SDS011;29889;52.034;5.570;2022-11-20T03:13:07;13.45;;;9.57;;
44218;SDS011;29889;52.034;5.570;2022-11-20T03:13:38;13.30;;;9.75;;
44218;SDS011;29889;52.034;5.570;2022-11-20T03:14:10;13.60;;;9.73;;